Terminal Aerodrome Forecast
Issued by NWS Corpus Christi, TX

Home | Current Version | Previous Version | Text Only | Print | Product List | Glossary On
Versions: 1 2 3 4 5 6 7 8 9 10 11 12 13 14 15 16 17 18 19 20 21 22
145
FTUS44 KCRP 010402 AAA
TAFVCT
TAF AMD
KVCT 010402Z 0104/0124 08005KT 5SM BR SCT015 BKN030
      TEMPO 0104/0108 3SM BR BKN015
     FM010800 11005KT 2SM BR SCT009
      TEMPO 0108/0112 1/2SM FG BKN005
     FM011500 11008KT 6SM HZ BKN020
     FM011800 12010G15KT P6SM SCT030 PROB30 0121/0124 VRB20G30KT 5SM
      TSRA BKN025CB=

USA.gov is the U.S. government's official web portal to all federal, state and local government web resources and services.